Time;durP1;ratioP1;P1;durP2;ratioP2;P2;SDS_P1;SDS_P2;PMS_P1;PMS_P2;Temp;Humidity;BMP_temperature;BMP_pressure;BME280_temperature;BME280_humidity;BME280_pressure;Samples;Min_cycle;Max_cycle;Signal;HPM_P1;HPM_P2
2021/09/12 04:00:30;;;;;;;75.03;32.37;;;16.70;99.90;;;;;;5900225;23;20408;-73
2021/09/12 04:02:57;;;;;;;77.57;31.50;;;16.60;99.90;;;;;;4954355;28;20810;-74
2021/09/12 04:05:24;;;;;;;79.30;33.27;;;16.60;99.90;;;;;;4951917;28;20468;-74
2021/09/12 04:07:51;;;;;;;73.80;32.70;;;16.60;99.90;;;;;;4953485;28;20476;-74
2021/09/12 04:10:17;;;;;;;85.33;33.57;;;16.60;99.90;;;;;;4950482;28;20469;-73
2021/09/12 04:12:44;;;;;;;74.53;32.67;;;16.60;99.90;;;;;;4939818;29;20872;-74
2021/09/12 04:15:11;;;;;;;89.80;32.90;;;16.60;99.90;;;;;;4953859;28;20819;-73
2021/09/12 04:17:39;;;;;;;79.93;32.73;;;16.60;99.90;;;;;;4953933;28;20485;-75
2021/09/12 04:20:07;;;;;;;77.00;33.20;;;16.60;99.90;;;;;;4953413;28;20464;-74
2021/09/12 04:22:34;;;;;;;76.40;33.50;;;16.60;99.90;;;;;;4953193;28;20477;-75
2021/09/12 04:25:01;;;;;;;80.13;33.07;;;16.60;99.90;;;;;;4953860;28;20469;-75
2021/09/12 04:27:28;;;;;;;71.07;32.63;;;16.70;99.90;;;;;;4953606;28;20468;-75
2021/09/12 04:29:55;;;;;;;84.67;32.23;;;16.70;99.90;;;;;;4954161;28;20475;-73
2021/09/12 04:32:21;;;;;;;80.90;33.70;;;16.70;99.90;;;;;;4953290;28;20540;-71
2021/09/12 04:34:49;;;;;;;77.07;32.33;;;16.70;99.90;;;;;;4953710;28;20547;-74
2021/09/12 04:37:16;;;;;;;73.87;32.97;;;16.70;99.90;;;;;;4953047;28;20480;-72
2021/09/12 04:39:43;;;;;;;64.97;31.20;;;16.60;99.90;;;;;;4953433;28;20941;-71
2021/09/12 04:42:10;;;;;;;78.70;34.43;;;16.60;99.90;;;;;;4952760;28;20564;-72
2021/09/12 04:44:37;;;;;;;72.97;31.73;;;16.60;99.90;;;;;;4953246;28;20457;-72
2021/09/12 04:47:04;;;;;;;83.30;34.03;;;16.60;99.90;;;;;;4953056;28;20464;-70
2021/09/12 04:49:31;;;;;;;76.27;32.27;;;16.60;99.90;;;;;;4953363;28;20464;-71
2021/09/12 04:51:59;;;;;;;70.53;31.50;;;16.50;99.90;;;;;;4952800;28;20511;-72
2021/09/12 04:54:25;;;;;;;78.53;32.43;;;16.50;99.90;;;;;;4953304;28;20499;-71
2021/09/12 04:56:52;;;;;;;79.50;32.00;;;16.50;99.90;;;;;;4953492;28;20496;-71
2021/09/12 04:59:19;;;;;;;84.20;34.37;;;16.50;99.90;;;;;;4951558;28;20477;-74
2021/09/12 05:01:45;;;;;;;72.83;33.37;;;16.50;99.90;;;;;;4949899;28;20504;-74
2021/09/12 05:04:12;;;;;;;77.80;32.00;;;16.50;99.90;;;;;;4953552;28;20473;-74
2021/09/12 05:06:38;;;;;;;71.83;33.77;;;16.50;99.90;;;;;;4952099;28;20524;-74
2021/09/12 05:09:06;;;;;;;72.90;31.83;;;16.50;99.90;;;;;;4953530;28;20465;-74
2021/09/12 05:11:33;;;;;;;79.63;31.20;;;16.50;99.90;;;;;;4952992;28;20489;-74
2021/09/12 05:14:00;;;;;;;71.93;34.37;;;16.50;99.90;;;;;;4953277;28;20528;-74
2021/09/12 05:16:26;;;;;;;62.27;30.83;;;16.50;99.90;;;;;;4952110;28;20465;-74
2021/09/12 05:18:53;;;;;;;72.23;31.60;;;16.50;99.90;;;;;;4953561;28;20557;-74
2021/09/12 05:21:20;;;;;;;85.43;36.13;;;16.50;99.90;;;;;;4952450;28;20489;-74
2021/09/12 05:23:46;;;;;;;77.10;31.40;;;16.60;99.90;;;;;;4952663;28;20805;-74
2021/09/12 05:26:15;;;;;;;76.80;34.33;;;16.60;99.90;;;;;;4952846;28;20910;-74
2021/09/12 05:28:41;;;;;;;74.10;32.73;;;16.60;99.90;;;;;;4955640;28;20488;-74
2021/09/12 05:31:09;;;;;;;87.40;34.20;;;16.70;99.90;;;;;;4952501;28;20489;-74
2021/09/12 05:33:36;;;;;;;77.03;33.87;;;16.70;99.90;;;;;;4956456;28;20461;-74
2021/09/12 05:36:02;;;;;;;70.43;31.70;;;16.80;99.90;;;;;;4955842;28;20503;-74
2021/09/12 05:38:29;;;;;;;68.87;32.50;;;16.80;99.90;;;;;;4955699;28;20492;-74
2021/09/12 05:40:56;;;;;;;79.87;34.90;;;16.90;99.90;;;;;;4956706;28;20484;-74
2021/09/12 05:43:24;;;;;;;69.47;33.87;;;17.00;99.90;;;;;;4956002;28;20798;-71
2021/09/12 05:45:50;;;;;;;67.53;34.33;;;17.10;99.90;;;;;;4956678;28;20472;-71
2021/09/12 05:48:17;;;;;;;60.83;31.13;;;17.20;99.90;;;;;;4955595;28;20469;-71
2021/09/12 05:50:44;;;;;;;52.93;30.70;;;17.20;99.90;;;;;;4955837;28;20899;-71
2021/09/12 05:53:12;;;;;;;56.17;30.20;;;17.20;99.90;;;;;;4955965;28;20461;-71
2021/09/12 05:55:39;;;;;;;59.03;30.07;;;17.30;99.90;;;;;;4956607;28;20560;-71
2021/09/12 05:58:06;;;;;;;52.70;28.07;;;17.40;99.90;;;;;;4956201;28;20536;-71
2021/09/12 06:00:34;;;;;;;48.87;28.10;;;17.40;99.90;;;;;;4956015;28;20511;-72
2021/09/12 06:03:01;;;;;;;47.70;28.13;;;17.50;99.90;;;;;;4957937;28;20473;-71
2021/09/12 06:05:27;;;;;;;37.17;25.77;;;17.50;99.90;;;;;;4955189;28;20543;-71
2021/09/12 06:07:54;;;;;;;39.00;25.17;;;17.60;99.90;;;;;;4955680;28;20576;-71
2021/09/12 06:10:21;;;;;;;39.80;26.77;;;17.60;99.90;;;;;;4956113;28;20461;-71
2021/09/12 06:12:47;;;;;;;38.50;25.50;;;17.60;99.90;;;;;;4955993;28;20464;-72
2021/09/12 06:15:14;;;;;;;40.20;24.93;;;17.70;99.90;;;;;;4956773;28;20499;-72
2021/09/12 06:17:42;;;;;;;36.50;24.60;;;17.70;99.90;;;;;;4956023;28;21062;-72
2021/09/12 06:20:10;;;;;;;37.37;24.67;;;17.80;99.90;;;;;;4955493;28;21211;-72
2021/09/12 06:22:42;;;;;;;38.87;25.80;;;17.80;99.90;;;;;;4955553;28;20947;-72
2021/09/12 06:25:10;;;;;;;33.90;25.60;;;17.80;99.90;;;;;;4948820;28;20473;-72
2021/09/12 06:27:36;;;;;;;32.27;22.77;;;17.80;99.90;;;;;;4937391;29;20854;-72
2021/09/12 06:30:04;;;;;;;37.13;24.43;;;17.80;99.90;;;;;;4948763;28;20847;-72
2021/09/12 06:32:30;;;;;;;38.87;25.50;;;17.80;99.90;;;;;;4955479;28;20992;-73
2021/09/12 06:34:58;;;;;;;34.80;22.70;;;17.90;99.90;;;;;;4955024;28;20461;-73
2021/09/12 06:37:25;;;;;;;35.13;23.27;;;17.90;99.90;;;;;;4955606;28;20544;-72
2021/09/12 06:39:52;;;;;;;34.03;24.57;;;18.00;99.90;;;;;;4953380;28;20473;-73
2021/09/12 06:42:19;;;;;;;31.70;22.30;;;18.00;99.90;;;;;;4936443;29;20544;-73
2021/09/12 06:44:45;;;;;;;31.30;23.27;;;18.10;99.90;;;;;;4940704;29;20468;-73
2021/09/12 06:47:12;;;;;;;32.37;22.50;;;18.10;99.90;;;;;;4948019;29;20492;-73
2021/09/12 06:49:39;;;;;;;31.67;20.97;;;18.20;99.90;;;;;;4955758;28;20614;-72
2021/09/12 06:52:07;;;;;;;33.70;23.33;;;18.30;99.90;;;;;;4945955;28;20539;-73
2021/09/12 06:54:34;;;;;;;33.50;22.77;;;18.30;99.90;;;;;;4955800;28;20480;-73
2021/09/12 06:57:01;;;;;;;28.03;21.37;;;18.30;99.90;;;;;;4954155;28;20464;-73
2021/09/12 06:59:27;;;;;;;30.27;22.70;;;18.40;99.90;;;;;;4952327;28;20560;-73
2021/09/12 07:01:54;;;;;;;33.37;22.13;;;18.50;99.90;;;;;;4946557;28;20622;-73
2021/09/12 07:04:21;;;;;;;30.90;21.40;;;18.60;99.90;;;;;;4957576;28;20456;-73
2021/09/12 07:06:47;;;;;;;29.70;21.37;;;18.70;99.90;;;;;;4947618;29;20470;-73
2021/09/12 07:09:16;;;;;;;30.03;22.20;;;18.70;99.90;;;;;;4955114;29;20461;-73
2021/09/12 07:11:42;;;;;;;27.27;20.70;;;18.80;99.90;;;;;;4952237;28;20697;-73
2021/09/12 07:14:09;;;;;;;30.20;21.10;;;19.00;99.90;;;;;;4954533;28;21193;-73
2021/09/12 07:16:36;;;;;;;26.37;19.47;;;19.10;99.90;;;;;;4947543;28;20974;-73
2021/09/12 07:19:07;;;;;;;26.13;19.50;;;19.20;99.90;;;;;;4937181;29;21000;-73
2021/09/12 07:21:34;;;;;;;25.07;20.17;;;19.20;99.90;;;;;;4942644;29;20480;-73
2021/09/12 07:24:00;;;;;;;27.30;20.63;;;19.30;99.90;;;;;;4954458;28;20849;-73
2021/09/12 07:26:28;;;;;;;25.20;18.93;;;19.30;99.90;;;;;;4957330;28;20469;-73
2021/09/12 07:28:55;;;;;;;25.50;18.97;;;19.40;99.90;;;;;;4955733;28;20469;-74
2021/09/12 07:31:22;;;;;;;27.70;19.90;;;19.60;99.90;;;;;;4951991;28;20899;-74
2021/09/12 07:33:48;;;;;;;22.90;17.87;;;19.70;99.90;;;;;;4956046;28;20483;-74
2021/09/12 07:36:16;;;;;;;20.20;17.90;;;19.80;99.90;;;;;;4955081;28;20547;-73
2021/09/12 07:38:42;;;;;;;22.03;18.83;;;19.70;99.90;;;;;;4955513;28;20555;-70
2021/09/12 07:41:11;;;;;;;23.07;19.10;;;19.70;99.90;;;;;;4954564;28;20492;-70
2021/09/12 07:43:39;;;;;;;20.33;17.87;;;19.80;99.90;;;;;;4954591;28;20864;-71
2021/09/12 07:46:06;;;;;;;21.43;17.67;;;19.90;99.90;;;;;;4954840;28;20496;-70
2021/09/12 07:48:33;;;;;;;20.37;17.10;;;19.90;99.90;;;;;;4954421;28;20527;-71
2021/09/12 07:51:02;;;;;;;20.37;16.83;;;20.00;99.90;;;;;;4953812;28;20830;-70
2021/09/12 07:53:29;;;;;;;19.83;17.73;;;20.00;99.90;;;;;;4953660;28;20476;-70
2021/09/12 07:55:55;;;;;;;19.13;17.07;;;20.00;99.90;;;;;;4954451;28;20972;-70
2021/09/12 07:58:22;;;;;;;17.20;14.97;;;20.10;99.90;;;;;;4954529;28;21008;-70
2021/09/12 08:00:50;;;;;;;17.47;15.67;;;20.20;99.90;;;;;;4954249;28;20529;-70
2021/09/12 08:03:17;;;;;;;19.57;17.53;;;20.20;99.90;;;;;;4954242;28;20473;-70
2021/09/12 08:05:44;;;;;;;17.43;15.73;;;20.30;99.90;;;;;;4954040;28;20492;-70
2021/09/12 08:08:10;;;;;;;18.87;15.67;;;20.50;99.90;;;;;;4953133;28;20468;-70
2021/09/12 08:10:38;;;;;;;19.30;16.03;;;20.70;99.90;;;;;;4944471;28;20486;-71
2021/09/12 08:13:05;;;;;;;17.60;14.47;;;20.60;99.90;;;;;;4944783;29;20461;-70
2021/09/12 08:15:32;;;;;;;19.13;15.47;;;20.50;99.90;;;;;;4934914;29;20465;-72
2021/09/12 08:18:00;;;;;;;19.17;16.10;;;20.50;99.90;;;;;;4942666;29;20490;-73
2021/09/12 08:20:26;;;;;;;17.90;16.00;;;20.50;99.90;;;;;;4952001;28;20484;-73
2021/09/12 08:22:53;;;;;;;19.73;16.17;;;20.40;99.90;;;;;;4951116;28;21040;-72
2021/09/12 08:25:20;;;;;;;18.57;16.60;;;20.50;99.90;;;;;;4953613;28;20467;-72
2021/09/12 08:27:46;;;;;;;16.87;15.10;;;20.70;99.90;;;;;;4953728;28;20520;-72
2021/09/12 08:30:13;;;;;;;20.60;15.90;;;20.80;99.90;;;;;;4952742;28;20459;-72
2021/09/12 08:32:40;;;;;;;18.03;14.43;;;20.90;99.90;;;;;;4953571;28;20489;-73
2021/09/12 08:35:10;;;;;;;17.80;15.90;;;20.90;99.90;;;;;;4953590;28;20473;-72
2021/09/12 08:37:37;;;;;;;15.40;13.50;;;20.90;99.90;;;;;;4949447;28;20961;-72
2021/09/12 08:40:06;;;;;;;16.43;14.77;;;21.00;99.90;;;;;;4953160;28;20528;-70
2021/09/12 08:42:33;;;;;;;15.00;13.47;;;21.00;99.90;;;;;;4949858;29;20519;-70
2021/09/12 08:44:59;;;;;;;14.83;13.27;;;20.80;99.90;;;;;;4952531;28;20484;-71
2021/09/12 08:47:27;;;;;;;19.53;14.37;;;20.70;99.90;;;;;;4949414;28;20465;-71
2021/09/12 08:49:54;;;;;;;15.87;13.00;;;20.60;99.90;;;;;;4952376;28;20459;-71
2021/09/12 08:52:22;;;;;;;18.37;15.20;;;20.50;99.90;;;;;;4939935;28;20484;-70
2021/09/12 08:54:48;;;;;;;19.10;14.20;;;20.40;99.90;;;;;;4953027;28;20477;-70
2021/09/12 08:57:16;;;;;;;15.50;13.50;;;20.40;99.90;;;;;;4940635;28;20551;-70
2021/09/12 08:59:48;;;;;;;18.37;13.60;;;20.30;99.90;;;;;;4948573;28;20556;-70
2021/09/12 09:02:15;;;;;;;15.70;14.10;;;20.40;99.90;;;;;;4953686;28;20547;-70
2021/09/12 09:04:42;;;;;;;16.07;12.90;;;20.30;99.90;;;;;;4957029;28;20518;-70
2021/09/12 09:07:10;;;;;;;15.00;12.60;;;20.30;99.90;;;;;;4942378;28;20462;-70
2021/09/12 09:09:45;;;;;;;16.03;14.40;;;20.30;99.90;;;;;;4945696;29;20524;-70
2021/09/12 09:12:34;;;;;;;17.40;14.53;;;20.40;99.90;;;;;;4955804;28;20480;-70
2021/09/12 09:15:12;;;;;;;18.03;14.70;;;20.50;99.90;;;;;;4956790;28;20978;-70
2021/09/12 09:17:42;;;;;;;15.07;12.77;;;20.40;99.90;;;;;;4944764;28;20529;-70
2021/09/12 09:20:11;;;;;;;19.40;13.37;;;20.40;99.90;;;;;;4946211;28;20488;-70
2021/09/12 09:22:40;;;;;;;15.33;13.73;;;20.40;99.90;;;;;;4949119;28;20960;-71
2021/09/12 09:25:14;;;;;;;15.43;13.47;;;20.50;99.90;;;;;;4956448;28;20464;-70
2021/09/12 09:27:55;;;;;;;15.63;13.60;;;20.50;99.90;;;;;;4949049;29;20468;-71
2021/09/12 09:30:22;;;;;;;13.50;12.03;;;20.50;99.90;;;;;;4956191;28;20559;-71
2021/09/12 09:32:48;;;;;;;14.40;11.70;;;20.40;99.90;;;;;;4944204;28;20604;-72
2021/09/12 09:35:22;;;;;;;12.93;11.70;;;20.40;99.90;;;;;;4950872;29;20475;-72
2021/09/12 09:37:49;;;;;;;12.33;11.13;;;20.50;99.90;;;;;;4952410;28;20534;-72
2021/09/12 09:40:17;;;;;;;13.93;12.20;;;20.50;99.90;;;;;;4955428;28;20991;-72
2021/09/12 09:42:45;;;;;;;15.30;13.10;;;20.50;99.90;;;;;;4956359;28;20534;-72
2021/09/12 09:45:13;;;;;;;14.63;12.93;;;20.40;99.90;;;;;;4955485;28;20465;-71
2021/09/12 09:47:41;;;;;;;13.80;11.37;;;20.30;99.90;;;;;;4947660;28;20516;-71
2021/09/12 09:50:12;;;;;;;14.03;12.50;;;20.30;99.90;;;;;;4955279;28;20468;-72
2021/09/12 09:52:40;;;;;;;16.67;12.53;;;20.30;99.90;;;;;;4955425;28;20564;-73
2021/09/12 09:55:08;;;;;;;13.73;12.30;;;20.30;99.90;;;;;;4953534;28;20927;-72
2021/09/12 09:57:36;;;;;;;13.67;11.60;;;20.20;99.90;;;;;;4956233;28;20515;-73
2021/09/12 10:00:06;;;;;;;15.37;13.10;;;20.20;99.90;;;;;;4953377;28;20898;-73
2021/09/12 10:02:34;;;;;;;12.80;11.50;;;20.20;99.90;;;;;;4955171;28;21025;-73
2021/09/12 10:05:02;;;;;;;13.77;12.37;;;20.20;99.90;;;;;;4952808;28;20552;-73
2021/09/12 10:07:30;;;;;;;13.70;12.50;;;20.20;99.90;;;;;;4950323;28;20469;-72
2021/09/12 10:09:57;;;;;;;15.10;12.53;;;20.20;99.90;;;;;;4944311;29;20806;-73
2021/09/12 10:12:24;;;;;;;15.10;13.50;;;20.30;99.90;;;;;;4954398;28;20868;-72
2021/09/12 10:14:56;;;;;;;14.27;12.77;;;20.40;99.90;;;;;;4954809;28;20527;-73
2021/09/12 10:17:28;;;;;;;14.40;12.90;;;20.50;99.90;;;;;;4954925;28;20460;-73
2021/09/12 10:20:07;;;;;;;14.00;12.60;;;20.50;99.90;;;;;;4953401;28;20484;-73
2021/09/12 10:22:49;;;;;;;14.20;12.63;;;20.60;99.90;;;;;;4955031;28;20518;-72
2021/09/12 10:25:16;;;;;;;16.53;12.73;;;20.70;99.90;;;;;;4949044;28;20467;-73
2021/09/12 10:27:43;;;;;;;16.13;13.90;;;20.80;99.90;;;;;;4955419;28;20947;-73
2021/09/12 10:30:26;;;;;;;12.70;11.40;;;20.90;99.90;;;;;;4952494;28;21221;-73
2021/09/12 10:33:16;;;;;;;13.10;11.57;;;21.00;99.90;;;;;;4952595;29;20519;-73
2021/09/12 10:35:51;;;;;;;11.47;10.23;;;21.10;99.90;;;;;;4954213;28;20500;-73
2021/09/12 10:38:26;;;;;;;12.80;11.67;;;21.30;99.90;;;;;;4955395;28;21011;-72
2021/09/12 10:41:13;;;;;;;13.43;12.03;;;21.30;99.90;;;;;;4953425;29;20546;-72
2021/09/12 10:43:48;;;;;;;13.23;11.80;;;21.40;99.90;;;;;;4943830;29;20778;-73
2021/09/12 10:46:31;;;;;;;13.40;11.60;;;21.30;99.90;;;;;;4955037;28;20459;-73
2021/09/12 10:49:06;;;;;;;11.77;10.70;;;21.40;99.90;;;;;;4952234;28;21015;-74
2021/09/12 10:51:35;;;;;;;12.40;11.43;;;21.50;99.90;;;;;;4954615;28;20483;-73
2021/09/12 10:54:02;;;;;;;12.50;11.30;;;21.50;99.90;;;;;;4953942;28;20519;-72
2021/09/12 10:56:30;;;;;;;12.60;11.50;;;21.50;99.90;;;;;;4954486;28;20520;-73
2021/09/12 10:59:00;;;;;;;14.33;11.13;;;21.50;99.90;;;;;;4954461;28;20980;-72
2021/09/12 11:01:29;;;;;;;12.03;10.83;;;21.40;99.90;;;;;;4949303;28;20551;-72
2021/09/12 11:03:57;;;;;;;12.37;11.07;;;21.40;99.90;;;;;;4951133;28;20461;-72
2021/09/12 11:06:24;;;;;;;11.30;10.40;;;21.50;99.90;;;;;;4940135;29;20461;-73
2021/09/12 11:08:51;;;;;;;12.57;11.37;;;21.50;99.90;;;;;;4939890;29;20472;-73
2021/09/12 11:11:17;;;;;;;12.80;10.60;;;21.50;99.90;;;;;;4953303;28;20790;-73
2021/09/12 11:13:44;;;;;;;13.80;11.00;;;21.50;99.90;;;;;;4936296;29;20488;-72
2021/09/12 11:16:13;;;;;;;14.10;11.30;;;21.60;99.90;;;;;;4955835;28;21079;-73
2021/09/12 11:18:46;;;;;;;10.67;9.57;;;21.80;99.90;;;;;;4955350;28;20461;-73
2021/09/12 11:21:23;;;;;;;12.83;10.53;;;21.90;99.90;;;;;;4950097;28;20484;-71
2021/09/12 11:23:56;;;;;;;12.63;10.57;;;22.00;99.90;;;;;;4955430;28;20453;-73
2021/09/12 11:26:23;;;;;;;12.17;10.77;;;22.10;99.90;;;;;;4944945;29;20453;-74
2021/09/12 11:29:01;;;;;;;10.43;9.53;;;22.20;99.90;;;;;;4954162;28;20495;-72
2021/09/12 11:31:28;;;;;;;13.03;10.77;;;22.30;99.90;;;;;;4954231;28;21011;-72
2021/09/12 11:33:56;;;;;;;11.27;9.87;;;22.20;99.90;;;;;;4947017;28;20466;-72
2021/09/12 11:36:23;;;;;;;12.30;11.07;;;22.10;99.90;;;;;;4944028;29;21103;-72
2021/09/12 11:38:55;;;;;;;11.30;10.30;;;22.10;99.90;;;;;;4954135;28;20924;-72
2021/09/12 11:41:23;;;;;;;11.77;10.67;;;22.00;99.90;;;;;;4945489;28;20562;-73
2021/09/12 11:43:54;;;;;;;11.13;10.23;;;22.00;99.90;;;;;;4950799;28;20953;-72
2021/09/12 11:46:22;;;;;;;11.43;10.40;;;22.00;99.90;;;;;;4954255;28;20535;-72
2021/09/12 11:48:58;;;;;;;10.50;9.60;;;22.10;99.90;;;;;;4941427;28;20466;-73
2021/09/12 11:51:30;;;;;;;11.37;10.00;;;22.20;99.90;;;;;;4941093;29;21004;-72
2021/09/12 11:54:10;;;;;;;10.77;9.67;;;22.20;99.90;;;;;;4953239;28;20991;-72
2021/09/12 11:56:38;;;;;;;11.13;10.20;;;22.30;99.90;;;;;;4954103;28;20468;-72
2021/09/12 11:59:05;;;;;;;10.83;9.90;;;22.50;99.90;;;;;;4940528;28;20493;-72
2021/09/12 12:01:32;;;;;;;11.33;10.33;;;22.50;99.90;;;;;;4942326;29;20489;-72
2021/09/12 12:04:03;;;;;;;9.80;8.90;;;22.70;99.90;;;;;;4952373;28;20812;-74
2021/09/12 12:06:30;;;;;;;11.73;9.93;;;22.90;99.90;;;;;;4953734;28;20464;-72
2021/09/12 12:09:11;;;;;;;11.03;10.23;;;22.90;99.90;;;;;;4953401;28;20769;-72
2021/09/12 12:11:41;;;;;;;11.37;10.43;;;22.80;99.90;;;;;;4954063;28;20984;-73
2021/09/12 12:14:17;;;;;;;10.13;9.20;;;22.70;99.90;;;;;;4953920;28;20764;-73
2021/09/12 12:16:44;;;;;;;10.80;10.00;;;22.70;99.90;;;;;;4954087;28;20961;-74
2021/09/12 12:19:14;;;;;;;11.43;10.53;;;22.60;99.90;;;;;;4953543;28;20485;-74
2021/09/12 12:21:42;;;;;;;10.67;9.70;;;22.40;99.90;;;;;;4952552;28;20564;-74
2021/09/12 12:24:10;;;;;;;10.83;10.03;;;22.30;99.90;;;;;;4948695;28;20498;-72
2021/09/12 12:26:42;;;;;;;12.90;11.53;;;22.10;99.90;;;;;;4941716;28;20564;-72
2021/09/12 12:29:09;;;;;;;12.00;10.77;;;22.00;99.90;;;;;;4939153;28;20484;-72
2021/09/12 12:31:37;;;;;;;11.20;10.10;;;22.00;99.90;;;;;;4952898;28;21084;-71
2021/09/12 12:34:04;;;;;;;12.40;11.40;;;22.00;99.90;;;;;;4941300;29;20462;-71
2021/09/12 12:36:32;;;;;;;11.43;10.33;;;22.00;99.90;;;;;;4953657;28;20483;-72
2021/09/12 12:39:14;;;;;;;11.20;10.20;;;21.90;99.90;;;;;;4958093;28;20469;-73
2021/09/12 12:41:52;;;;;;;12.17;10.83;;;21.90;99.90;;;;;;4957138;28;20539;-72
2021/09/12 12:44:18;;;;;;;12.00;10.80;;;21.90;99.90;;;;;;4950189;29;20543;-72
2021/09/12 12:46:45;;;;;;;11.23;10.30;;;21.90;99.90;;;;;;4957575;28;20515;-72
2021/09/12 12:49:12;;;;;;;11.47;10.47;;;21.90;99.90;;;;;;4952336;28;20464;-72
2021/09/12 12:51:40;;;;;;;15.13;11.10;;;22.00;99.90;;;;;;4957180;28;20562;-72
2021/09/12 12:54:19;;;;;;;11.10;10.10;;;22.10;99.90;;;;;;4957051;28;20464;-72
2021/09/12 12:56:46;;;;;;;11.17;10.10;;;22.20;99.90;;;;;;4957656;28;20479;-72
2021/09/12 12:59:13;;;;;;;10.90;10.10;;;22.40;99.90;;;;;;4957209;28;20488;-72
2021/09/12 13:01:40;;;;;;;10.00;9.20;;;22.50;99.90;;;;;;4958583;28;20892;-71
2021/09/12 13:04:06;;;;;;;9.20;8.47;;;22.40;99.90;;;;;;4960695;28;20491;-71
2021/09/12 13:06:33;;;;;;;10.63;9.80;;;22.40;99.90;;;;;;4956794;28;20464;-71
2021/09/12 13:09:01;;;;;;;11.07;10.27;;;22.40;99.90;;;;;;4957070;28;20476;-71
2021/09/12 13:11:28;;;;;;;12.40;11.23;;;22.40;99.90;;;;;;4951924;28;20492;-71
2021/09/12 13:13:54;;;;;;;10.77;9.77;;;22.40;99.90;;;;;;4957047;28;20815;-72
2021/09/12 13:16:21;;;;;;;11.67;10.67;;;22.40;99.90;;;;;;4957086;28;20523;-70
2021/09/12 13:18:48;;;;;;;11.40;10.47;;;22.40;99.90;;;;;;4956991;28;20460;-71
2021/09/12 13:21:14;;;;;;;11.00;10.10;;;22.50;99.90;;;;;;4956081;28;20497;-71
2021/09/12 13:23:41;;;;;;;9.93;8.80;;;22.50;99.90;;;;;;4955971;28;20973;-71
2021/09/12 13:26:09;;;;;;;11.43;10.53;;;22.60;99.90;;;;;;4954732;28;20929;-71
2021/09/12 13:28:36;;;;;;;9.57;8.87;;;22.60;99.90;;;;;;4951515;28;20539;-71
2021/09/12 13:31:04;;;;;;;10.60;9.63;;;22.80;99.90;;;;;;4945171;28;20591;-71
2021/09/12 13:33:31;;;;;;;11.00;10.17;;;22.80;99.90;;;;;;4946653;28;20489;-71
2021/09/12 13:35:58;;;;;;;10.27;9.40;;;22.70;99.90;;;;;;4955262;28;20555;-71
2021/09/12 13:38:25;;;;;;;10.87;10.03;;;22.70;99.90;;;;;;4956594;29;20480;-71
2021/09/12 13:40:52;;;;;;;11.10;10.20;;;22.60;99.90;;;;;;4956297;28;20500;-71
2021/09/12 13:43:20;;;;;;;9.90;9.10;;;22.60;99.90;;;;;;4939749;28;20986;-71
2021/09/12 13:45:47;;;;;;;9.70;9.00;;;22.70;99.90;;;;;;4940372;29;20457;-71
2021/09/12 13:48:14;;;;;;;9.63;8.90;;;22.70;99.90;;;;;;4944766;28;20462;-71
2021/09/12 13:50:41;;;;;;;9.77;9.07;;;22.70;99.90;;;;;;4949330;28;20480;-71
2021/09/12 13:53:07;;;;;;;8.83;8.20;;;22.70;99.90;;;;;;4956173;28;20945;-71
2021/09/12 13:55:34;;;;;;;10.63;9.70;;;22.70;99.90;;;;;;4956499;28;20609;-71
2021/09/12 13:58:02;;;;;;;10.17;9.23;;;22.60;99.90;;;;;;4956674;28;20464;-71
2021/09/12 14:00:30;;;;;;;9.80;9.13;;;22.60;99.90;;;;;;4955960;28;20492;-71
2021/09/12 14:02:57;;;;;;;10.57;9.57;;;22.50;99.90;;;;;;4956183;28;20936;-71
2021/09/12 14:05:24;;;;;;;10.93;9.93;;;22.50;99.90;;;;;;4956154;28;20468;-71
2021/09/12 14:07:50;;;;;;;9.95;9.30;;;22.40;99.90;;;;;;4954814;28;20475;-71
2021/09/12 14:10:17;;;;;;;10.60;9.70;;;22.60;99.90;;;;;;4956096;28;20228;-71
2021/09/12 14:12:44;;;;;;;10.20;9.13;;;22.60;99.90;;;;;;4955230;28;20500;-71
2021/09/12 14:15:11;;;;;;;10.17;9.17;;;22.60;99.90;;;;;;4955402;28;20484;-74
2021/09/12 14:17:39;;;;;;;9.57;8.67;;;22.60;99.90;;;;;;4955259;28;20555;-74
2021/09/12 14:20:07;;;;;;;9.90;9.10;;;22.70;99.90;;;;;;4955010;28;20837;-73
2021/09/12 14:22:33;;;;;;;10.03;9.20;;;22.70;99.90;;;;;;4955239;28;20543;-74
2021/09/12 14:25:00;;;;;;;9.60;8.80;;;22.70;99.90;;;;;;4955949;28;20822;-75
2021/09/12 14:27:27;;;;;;;8.93;8.20;;;22.60;99.90;;;;;;4955389;28;20804;-75
2021/09/12 14:29:53;;;;;;;9.07;8.30;;;22.60;99.90;;;;;;4955381;28;20988;-76
2021/09/12 14:32:20;;;;;;;9.47;8.53;;;22.60;99.90;;;;;;4955346;28;21017;-75
2021/09/12 14:34:48;;;;;;;7.80;7.20;;;22.70;99.90;;;;;;4956274;28;20527;-72
2021/09/12 14:37:15;;;;;;;8.17;7.47;;;22.80;99.90;;;;;;4955247;28;20472;-74
2021/09/12 14:39:41;;;;;;;7.97;7.37;;;22.80;99.90;;;;;;4940064;28;20484;-75
2021/09/12 14:42:11;;;;;;;8.20;7.80;;;22.80;99.90;;;;;;4935829;29;20516;-74
2021/09/12 14:44:38;;;;;;;8.77;7.97;;;22.80;99.90;;;;;;4936445;29;20474;-75
2021/09/12 14:47:05;;;;;;;9.67;8.97;;;22.80;99.90;;;;;;4940064;28;20505;-74
2021/09/12 14:49:32;;;;;;;8.90;8.20;;;22.80;99.90;;;;;;4945517;28;20468;-74
2021/09/12 14:52:00;;;;;;;8.83;8.17;;;22.80;99.90;;;;;;4951889;28;20981;-73
2021/09/12 14:54:26;;;;;;;9.50;8.63;;;22.80;99.90;;;;;;4954618;28;20959;-74
2021/09/12 14:56:53;;;;;;;7.47;7.00;;;22.80;99.90;;;;;;4946502;28;20478;-74
2021/09/12 14:59:22;;;;;;;8.13;7.50;;;22.80;99.90;;;;;;4950877;28;20543;-74
2021/09/12 15:01:49;;;;;;;7.60;7.10;;;22.80;99.90;;;;;;4953044;28;20552;-74
2021/09/12 15:04:19;;;;;;;7.40;6.90;;;22.80;99.90;;;;;;4954204;28;20480;-74
2021/09/12 15:06:46;;;;;;;7.90;7.30;;;22.80;99.90;;;;;;4944357;28;20549;-73
2021/09/12 15:09:14;;;;;;;7.80;7.20;;;22.60;99.90;;;;;;4948056;28;20473;-74
2021/09/12 15:11:40;;;;;;;8.10;7.30;;;22.70;99.90;;;;;;4954424;28;20481;-75
2021/09/12 15:14:07;;;;;;;7.50;6.83;;;22.60;99.90;;;;;;4953249;28;20468;-74
2021/09/12 15:16:34;;;;;;;8.37;7.70;;;22.50;99.90;;;;;;4954925;28;20972;-74
2021/09/12 15:19:00;;;;;;;7.53;6.97;;;22.50;99.90;;;;;;4947908;28;20465;-75
2021/09/12 15:21:27;;;;;;;7.63;7.13;;;22.40;99.90;;;;;;4937009;29;21075;-73
2021/09/12 15:23:54;;;;;;;8.30;7.70;;;22.40;99.90;;;;;;4949994;28;20484;-74
2021/09/12 15:26:23;;;;;;;7.00;6.50;;;22.30;99.90;;;;;;4954502;28;20460;-75
2021/09/12 15:28:49;;;;;;;8.27;6.40;;;22.30;99.90;;;;;;4950855;28;20466;-73
2021/09/12 15:31:16;;;;;;;6.83;6.43;;;22.10;99.90;;;;;;4937110;28;20484;-75
2021/09/12 15:33:43;;;;;;;7.70;7.20;;;22.00;99.90;;;;;;4948947;29;20457;-74
2021/09/12 15:36:09;;;;;;;6.00;5.70;;;21.90;99.90;;;;;;4953274;28;20461;-74
2021/09/12 15:38:36;;;;;;;6.27;5.83;;;21.80;99.90;;;;;;4950222;28;21142;-74
2021/09/12 15:41:02;;;;;;;8.40;6.23;;;21.80;99.90;;;;;;4944568;28;20501;-74
2021/09/12 15:43:30;;;;;;;6.20;5.80;;;21.70;99.90;;;;;;4951456;28;20536;-74
2021/09/12 15:45:57;;;;;;;7.13;6.53;;;21.60;99.90;;;;;;4951945;28;20469;-74
2021/09/12 15:48:24;;;;;;;6.03;5.67;;;21.50;99.90;;;;;;4952857;28;20901;-74
2021/09/12 15:50:50;;;;;;;9.50;6.83;;;21.50;99.90;;;;;;4949976;28;20489;-74
2021/09/12 15:53:17;;;;;;;5.80;5.53;;;21.50;99.90;;;;;;4952368;28;20500;-74
2021/09/12 15:55:44;;;;;;;7.07;6.57;;;21.40;99.90;;;;;;4938214;28;20843;-74
2021/09/12 15:58:10;;;;;;;7.00;6.50;;;21.50;99.90;;;;;;4950675;28;20461;-74
2021/09/12 16:00:39;;;;;;;6.93;6.43;;;21.50;99.90;;;;;;4935296;28;20585;-74
2021/09/12 16:03:05;;;;;;;6.93;6.37;;;21.50;99.90;;;;;;4949282;28;20520;-74
2021/09/12 16:05:33;;;;;;;7.13;6.67;;;21.50;99.90;;;;;;4950743;29;20839;-74
2021/09/12 16:07:59;;;;;;;7.67;6.97;;;21.40;99.90;;;;;;4949286;28;20494;-74
2021/09/12 16:10:26;;;;;;;9.27;8.23;;;21.30;99.90;;;;;;4952891;28;20598;-74
2021/09/12 16:12:53;;;;;;;10.33;6.77;;;21.20;99.90;;;;;;4947765;28;20676;-74
2021/09/12 16:15:19;;;;;;;7.97;7.40;;;21.10;99.90;;;;;;4951142;28;20500;-73
2021/09/12 16:17:48;;;;;;;7.73;7.13;;;21.00;99.90;;;;;;4952874;29;20519;-74
2021/09/12 16:20:15;;;;;;;7.40;6.80;;;21.00;99.90;;;;;;4952801;28;20877;-74
2021/09/12 16:22:42;;;;;;;8.17;7.10;;;20.90;99.90;;;;;;4952110;28;20484;-74
2021/09/12 16:25:10;;;;;;;7.87;7.27;;;20.90;99.90;;;;;;4952773;28;20460;-73
2021/09/12 16:27:37;;;;;;;6.80;6.40;;;20.90;99.90;;;;;;4934608;28;20573;-73
2021/09/12 16:30:04;;;;;;;6.87;6.30;;;20.90;99.90;;;;;;4950609;29;20465;-74
2021/09/12 16:32:34;;;;;;;7.53;7.10;;;20.80;99.90;;;;;;4952122;28;20484;-73
2021/09/12 16:35:02;;;;;;;6.70;6.40;;;20.80;99.90;;;;;;4950865;28;20488;-74
2021/09/12 16:37:28;;;;;;;6.83;6.30;;;20.80;99.90;;;;;;4953089;28;20468;-73